Luchthaven weerrapport

 

EBBR - Brussel National Airport
Afstand tot station: NNW 8.5km
Update: 20/06/2019 10:50
Grotendeels bewolkt
Grotendeels bewolkt
 Wind van WZW
Wind: WZW 15 km/h
Temperatuur: 17°C
Dauwpunt: 14°C
Vochtigheid: 83%
Barometer: 1012 hPa
Wolken: Grotendeels bewolkt
Zicht: 10 km
Wolken in detail: Lichtbewolkt 579 m
Gedeeltelijk bewolkt 732 m
Grotendeels bewolkt 792 m
2019/06/20 08:50 EBBR 200850Z 24008KT 9999 FEW019 SCT024 BKN026 17/14 Q1012 NOSIG